Time,TemperatureF,DewpointF,PressureIn,WindDirection,WindDirectionDegrees,WindSpeedMPH,WindSpeedGustMPH,Humidity,HourlyPrecipIn,Conditions,Clouds,dailyrainin,SolarRadiationWatts/m^2,SoftwareType,DateUTC
2013-08-08 00:03:00,82.8,77.0,29.90,WSW,251,0.0,1.0,83,0.00,,,0.00,0,weatherlink.com 1.10,2013-08-08 04:03:00,
2013-08-08 00:18:00,82.6,77.0,29.90,WSW,251,1.0,1.0,84,0.00,,,0.00,0,weatherlink.com 1.10,2013-08-08 04:18:00,
2013-08-08 00:33:00,82.4,77.0,29.90,WSW,251,0.0,0.0,84,0.00,,,0.00,0,weatherlink.com 1.10,2013-08-08 04:33:00,
2013-08-08 00:48:00,82.1,77.0,29.89,WSW,251,0.0,0.0,84,0.00,,,0.00,0,weatherlink.com 1.10,2013-08-08 04:48:00,
2013-08-08 01:03:00,81.7,77.0,29.89,WSW,251,0.0,2.0,86,0.00,,,0.00,0,weatherlink.com 1.10,2013-08-08 05:03:00,
2013-08-08 01:18:00,81.3,77.0,29.89,WSW,251,1.0,3.0,87,0.00,,,0.00,0,weatherlink.com 1.10,2013-08-08 05:18:00,
2013-08-08 01:33:00,81.1,77.0,29.89,WSW,251,0.0,2.0,87,0.00,,,0.00,0,weatherlink.com 1.10,2013-08-08 05:33:00,
2013-08-08 01:48:00,80.9,77.0,29.89,WSW,251,0.0,1.0,88,0.00,,,0.00,0,weatherlink.com 1.10,2013-08-08 05:48:00,
2013-08-08 02:03:00,80.7,77.0,29.90,WSW,251,0.0,1.0,88,0.00,,,0.00,0,weatherlink.com 1.10,2013-08-08 06:03:00,
2013-08-08 02:18:00,80.4,77.0,29.89,WSW,251,0.0,0.0,89,0.00,,,0.00,0,weatherlink.com 1.10,2013-08-08 06:18:00,
2013-08-08 02:33:00,80.1,77.0,29.89,WSW,251,0.0,0.0,89,0.00,,,0.00,0,weatherlink.com 1.10,2013-08-08 06:33:00,
2013-08-08 02:48:00,79.8,77.0,29.89,WSW,251,0.0,0.0,90,0.00,,,0.00,0,weatherlink.com 1.10,2013-08-08 06:48:00,
2013-08-08 03:03:00,79.7,77.0,29.90,WSW,251,0.0,0.0,91,0.00,,,0.00,0,weatherlink.com 1.10,2013-08-08 07:03:00,
2013-08-08 03:18:00,79.5,77.0,29.90,WSW,251,0.0,1.0,91,0.00,,,0.00,0,weatherlink.com 1.10,2013-08-08 07:18:00,
2013-08-08 03:33:00,79.3,77.0,29.90,WSW,251,0.0,1.0,92,0.00,,,0.00,0,weatherlink.com 1.10,2013-08-08 07:33:00,
2013-08-08 03:48:00,79.1,77.0,29.89,WSW,251,0.0,0.0,92,0.00,,,0.00,0,weatherlink.com 1.10,2013-08-08 07:48:00,
2013-08-08 04:03:00,78.9,77.0,29.89,WSW,251,0.0,0.0,92,0.00,,,0.00,0,weatherlink.com 1.10,2013-08-08 08:03:00,
2013-08-08 04:18:00,78.7,77.0,29.89,WSW,251,0.0,0.0,93,0.00,,,0.00,0,weatherlink.com 1.10,2013-08-08 08:18:00,
2013-08-08 04:33:00,78.5,76.0,29.89,WSW,251,0.0,0.0,93,0.00,,,0.00,0,weatherlink.com 1.10,2013-08-08 08:33:00,
2013-08-08 04:48:00,78.2,76.0,29.89,WSW,251,0.0,0.0,93,0.00,,,0.00,0,weatherlink.com 1.10,2013-08-08 08:48:00,
2013-08-08 05:03:00,78.0,76.0,29.89,WSW,251,0.0,0.0,93,0.00,,,0.00,0,weatherlink.com 1.10,2013-08-08 09:03:00,
2013-08-08 05:18:00,77.8,76.0,29.89,WSW,251,0.0,0.0,94,0.00,,,0.00,0,weatherlink.com 1.10,2013-08-08 09:18:00,
2013-08-08 05:33:00,77.7,76.0,29.89,WSW,251,0.0,0.0,94,0.00,,,0.00,0,weatherlink.com 1.10,2013-08-08 09:33:00,
2013-08-08 05:48:00,77.5,76.0,29.89,WSW,251,0.0,0.0,94,0.00,,,0.00,0,weatherlink.com 1.10,2013-08-08 09:48:00,
2013-08-08 06:03:00,77.4,76.0,29.89,WSW,251,0.0,0.0,94,0.00,,,0.00,0,weatherlink.com 1.10,2013-08-08 10:03:00,
2013-08-08 06:18:00,77.4,76.0,29.89,WSW,251,0.0,0.0,95,0.00,,,0.00,0,weatherlink.com 1.10,2013-08-08 10:18:00,
2013-08-08 06:33:00,77.5,76.0,29.89,WSW,251,0.0,0.0,95,0.00,,,0.00,0,weatherlink.com 1.10,2013-08-08 10:33:00,
2013-08-08 06:48:00,77.2,76.0,29.89,WSW,251,0.0,0.0,95,0.00,,,0.00,0,weatherlink.com 1.10,2013-08-08 10:48:00,
2013-08-08 07:03:00,77.2,76.0,29.89,WSW,251,0.0,0.0,95,0.00,,,0.00,0,weatherlink.com 1.10,2013-08-08 11:03:00,
2013-08-08 07:18:00,77.2,76.0,29.89,WSW,251,0.0,0.0,95,0.00,,,0.00,0,weatherlink.com 1.10,2013-08-08 11:18:00,
2013-08-08 07:33:00,77.0,76.0,29.89,WSW,251,0.0,0.0,95,0.00,,,0.00,5,weatherlink.com 1.10,2013-08-08 11:33:00,
2013-08-08 07:48:00,76.9,75.0,29.90,WSW,251,0.0,0.0,95,0.00,,,0.00,18,weatherlink.com 1.10,2013-08-08 11:48:00,
2013-08-08 08:04:00,76.9,76.0,29.90,WSW,251,0.0,0.0,96,0.00,,,0.00,30,weatherlink.com 1.10,2013-08-08 12:04:00,
2013-08-08 08:19:00,77.1,76.0,29.90,WSW,251,0.0,0.0,96,0.00,,,0.00,74,weatherlink.com 1.10,2013-08-08 12:19:00,
2013-08-08 08:34:00,78.2,77.0,29.90,WSW,251,0.0,0.0,96,0.00,,,0.00,127,weatherlink.com 1.10,2013-08-08 12:34:00,
2013-08-08 08:49:00,78.9,78.0,29.90,WSW,251,0.0,2.0,96,0.00,,,0.00,174,weatherlink.com 1.10,2013-08-08 12:49:00,
2013-08-08 09:04:00,80.1,79.0,29.91,WNW,301,0.0,3.0,96,0.00,,,0.00,229,weatherlink.com 1.10,2013-08-08 13:04:00,
2013-08-08 09:19:00,82.3,79.0,29.91,WNW,301,0.0,3.0,89,0.00,,,0.00,281,weatherlink.com 1.10,2013-08-08 13:19:00,
2013-08-08 09:34:00,83.3,79.0,29.91,NW,311,1.0,3.0,87,0.00,,,0.00,334,weatherlink.com 1.10,2013-08-08 13:34:00,
2013-08-08 09:49:00,83.9,79.0,29.91,NW,314,0.0,1.0,86,0.00,,,0.00,387,weatherlink.com 1.10,2013-08-08 13:49:00,
2013-08-08 10:04:00,85.1,79.0,29.92,NW,314,0.0,2.0,81,0.00,,,0.00,438,weatherlink.com 1.10,2013-08-08 14:04:00,
2013-08-08 10:19:00,85.7,79.0,29.93,NW,314,2.0,4.0,79,0.00,,,0.00,489,weatherlink.com 1.10,2013-08-08 14:19:00,
2013-08-08 10:34:00,85.9,78.0,29.93,NW,314,0.0,2.0,77,0.00,,,0.00,540,weatherlink.com 1.10,2013-08-08 14:34:00,
2013-08-08 10:49:00,86.5,78.0,29.93,NW,314,0.0,2.0,76,0.00,,,0.00,584,weatherlink.com 1.10,2013-08-08 14:49:00,
2013-08-08 11:04:00,87.4,77.0,29.93,East,100,0.0,2.0,71,0.00,,,0.00,629,weatherlink.com 1.10,2013-08-08 15:04:00,
2013-08-08 11:19:00,87.5,79.0,29.93,East,100,2.0,2.0,75,0.00,,,0.00,666,weatherlink.com 1.10,2013-08-08 15:19:00,
2013-08-08 11:34:00,88.9,78.0,29.93,East,83,1.0,3.0,70,0.00,,,0.00,715,weatherlink.com 1.10,2013-08-08 15:34:00,
2013-08-08 11:50:00,89.0,79.0,29.93,East,82,0.0,2.0,72,0.00,,,0.00,758,weatherlink.com 1.10,2013-08-08 15:50:00,
2013-08-08 12:05:00,89.1,78.0,29.93,NW,313,0.0,3.0,70,0.00,,,0.00,800,weatherlink.com 1.10,2013-08-08 16:05:00,
2013-08-08 12:20:00,90.3,79.0,29.93,WNW,289,0.0,3.0,69,0.00,,,0.00,912,weatherlink.com 1.10,2013-08-08 16:20:00,
2013-08-08 12:35:00,90.3,78.0,29.93,West,273,0.0,3.0,68,0.00,,,0.00,918,weatherlink.com 1.10,2013-08-08 16:35:00,
2013-08-08 12:50:00,90.7,78.0,29.93,ESE,123,1.0,3.0,66,0.00,,,0.00,234,weatherlink.com 1.10,2013-08-08 16:50:00,
2013-08-08 13:05:00,91.1,80.0,29.92,SSW,206,0.0,4.0,69,0.00,,,0.00,997,weatherlink.com 1.10,2013-08-08 17:05:00,
2013-08-08 13:20:00,92.3,81.0,29.92,East,83,0.0,3.0,69,0.00,,,0.00,1016,weatherlink.com 1.10,2013-08-08 17:20:00,
2013-08-08 13:35:00,91.2,78.0,29.91,West,276,0.0,5.0,66,0.00,,,0.00,983,weatherlink.com 1.10,2013-08-08 17:35:00,
2013-08-08 13:50:00,92.6,80.0,29.91,SW,215,0.0,4.0,67,0.00,,,0.00,1004,weatherlink.com 1.10,2013-08-08 17:50:00,
2013-08-08 14:05:00,92.6,80.0,29.90,SSW,211,3.0,4.0,66,0.00,,,0.00,969,weatherlink.com 1.10,2013-08-08 18:05:00,
2013-08-08 14:20:00,93.5,78.0,29.90,ESE,111,0.0,6.0,61,0.00,,,0.00,983,weatherlink.com 1.10,2013-08-08 18:20:00,
2013-08-08 14:35:00,93.4,78.0,29.89,ESE,117,0.0,5.0,62,0.00,,,0.00,954,weatherlink.com 1.10,2013-08-08 18:35:00,
2013-08-08 15:05:00,94.1,78.0,29.89,SE,128,0.0,5.0,60,0.00,,,0.00,455,weatherlink.com 1.10,2013-08-08 19:05:00,
2013-08-08 15:20:00,94.6,79.0,29.89,ESE,119,0.0,5.0,61,0.00,,,0.00,933,weatherlink.com 1.10,2013-08-08 19:20:00,
2013-08-08 15:35:00,94.3,77.0,29.88,SW,221,0.0,6.0,57,0.00,,,0.00,914,weatherlink.com 1.10,2013-08-08 19:35:00,
2013-08-08 15:50:00,94.0,76.0,29.87,ENE,72,2.0,7.0,57,0.00,,,0.00,197,weatherlink.com 1.10,2013-08-08 19:50:00,
2013-08-08 16:05:00,94.9,77.0,29.87,East,101,2.0,5.0,56,0.00,,,0.00,861,weatherlink.com 1.10,2013-08-08 20:05:00,
2013-08-08 16:20:00,94.7,77.0,29.86,SW,232,1.0,3.0,56,0.00,,,0.00,817,weatherlink.com 1.10,2013-08-08 20:20:00,
2013-08-08 16:35:00,95.5,78.0,29.86,SW,221,2.0,6.0,57,0.00,,,0.00,844,weatherlink.com 1.10,2013-08-08 20:35:00,
2013-08-08 16:50:00,94.2,77.0,29.86,East,89,0.0,4.0,57,0.00,,,0.00,830,weatherlink.com 1.10,2013-08-08 20:50:00,
2013-08-08 17:05:00,95.4,78.0,29.85,SSW,199,0.0,4.0,58,0.00,,,0.00,292,weatherlink.com 1.10,2013-08-08 21:05:00,
2013-08-08 17:35:00,95.0,77.0,29.85,SE,136,0.0,5.0,57,0.00,,,0.00,729,weatherlink.com 1.10,2013-08-08 21:35:00,
2013-08-08 18:05:00,94.0,80.0,29.85,SE,134,2.0,4.0,63,0.00,,,0.00,366,weatherlink.com 1.10,2013-08-08 22:05:00,
2013-08-08 18:20:00,92.7,80.0,29.85,SSE,152,2.0,9.0,67,0.00,,,0.00,415,weatherlink.com 1.10,2013-08-08 22:20:00,
2013-08-08 18:35:00,91.3,80.0,29.85,ESE,114,5.0,8.0,69,0.00,,,0.00,123,weatherlink.com 1.10,2013-08-08 22:35:00,
2013-08-08 18:50:00,91.0,80.0,29.85,East,94,1.0,4.0,71,0.00,,,0.00,355,weatherlink.com 1.10,2013-08-08 22:50:00,
2013-08-08 19:05:00,91.5,80.0,29.85,ESE,119,0.0,6.0,68,0.00,,,0.00,278,weatherlink.com 1.10,2013-08-08 23:05:00,
2013-08-08 20:05:00,89.7,80.0,29.86,ESE,122,1.0,3.0,72,0.00,,,0.00,65,weatherlink.com 1.10,2013-08-09 00:05:00,
2013-08-08 20:20:00,89.0,79.0,29.86,SE,128,0.0,0.0,73,0.00,,,0.00,33,weatherlink.com 1.10,2013-08-09 00:20:00,
2013-08-08 20:35:00,88.4,79.0,29.86,SE,128,0.0,2.0,73,0.00,,,0.00,14,weatherlink.com 1.10,2013-08-09 00:35:00,
2013-08-08 20:50:00,87.5,79.0,29.87,SE,128,0.0,1.0,75,0.00,,,0.00,5,weatherlink.com 1.10,2013-08-09 00:50:00,
2013-08-08 21:05:00,87.0,79.0,29.87,SE,128,0.0,1.0,76,0.00,,,0.00,0,weatherlink.com 1.10,2013-08-09 01:05:00,
2013-08-08 21:35:00,85.7,79.0,29.88,SE,128,0.0,0.0,79,0.00,,,0.00,0,weatherlink.com 1.10,2013-08-09 01:35:00,
2013-08-08 21:50:00,85.2,78.0,29.87,SE,128,0.0,0.0,80,0.00,,,0.00,0,weatherlink.com 1.10,2013-08-09 01:50:00,
2013-08-08 22:05:00,85.0,79.0,29.87,SE,128,0.0,0.0,81,0.00,,,0.00,0,weatherlink.com 1.10,2013-08-09 02:05:00,
2013-08-08 22:20:00,85.1,79.0,29.87,SE,128,0.0,1.0,81,0.00,,,0.00,0,weatherlink.com 1.10,2013-08-09 02:20:00,
2013-08-08 22:35:00,84.9,79.0,29.88,SE,128,0.0,1.0,81,0.00,,,0.00,0,weatherlink.com 1.10,2013-08-09 02:35:00,
2013-08-08 23:05:00,84.4,79.0,29.90,SE,128,0.0,1.0,83,0.00,,,0.00,0,weatherlink.com 1.10,2013-08-09 03:05:00,
2013-08-08 23:20:00,84.2,79.0,29.89,SE,128,0.0,0.0,83,0.00,,,0.00,0,weatherlink.com 1.10,2013-08-09 03:20:00,
2013-08-08 23:36:00,83.9,79.0,29.89,SE,128,0.0,0.0,84,0.00,,,0.00,0,weatherlink.com 1.10,2013-08-09 03:36:00,